KFTK/FTK METAR and TAF weather

Enter ICAO airport designator
Station Type Date Time Source
KFTK METAR 2019/08/20 08:56 UTC NOAA

KFTK 200856Z AUTO 00000KT 9SM CLR 22/22 A3007 RMK AO2 SLP178 T02210221 53004


Station Type Date Time Source
KFTK Decoded METAR 2019/08/20 08:56 UTC NOAA

Fort Knox, KY, United States (KFTK) 37-54N 085-58W 230M
Aug 20, 2019 - 04:56 AM EDT / 2019.08.20 0856 UTC
Wind: Calm:0
Visibility: 9 mile(s):0
Sky conditions: clear
Temperature: 71.8 F (22.1 C)
Dew Point: 71.8 F (22.1 C)
Relative Humidity: 100%
Pressure (altimeter): 30.07 in. Hg (1018 hPa)
Pressure tendency: 0.01 inches (0.4 hPa) higher than three hours ago
ob: KFTK 200856Z AUTO 00000KT 9SM CLR 22/22 A3007 RMK AO2 SLP178 T02210221 53004
cycle: 9

Station Type Date Time Source
KFTK TAF 2019/08/20 09:15 UTC NOAA

TAF TAF KFTK 200900Z 2009/2115 VRB06KT 9999 FEW035 QNH2996INS
BECMG 2110/2111 VRB06KT 9000 -SHRA OVC040 QNH2999INS
BECMG 2114/2115 25020G25KT 9999 -TSRA FEW035CB OVC040 QNH3001INS TX35/2020Z TN22/2011Z

Example: see airport list